sensor_id;sensor_type;location;lat;lon;timestamp;temperature;humidity
12436;DHT22;6282;51.440;6.938;2022-09-02T00:01:24;16.60;1.00
12436;DHT22;6282;51.440;6.938;2022-09-02T00:03:56;16.60;1.00
12436;DHT22;6282;51.440;6.938;2022-09-02T00:06:23;16.60;1.00
12436;DHT22;6282;51.440;6.938;2022-09-02T00:08:51;16.60;1.00
12436;DHT22;6282;51.440;6.938;2022-09-02T00:11:21;16.50;1.00
12436;DHT22;6282;51.440;6.938;2022-09-02T00:13:48;16.40;1.00
12436;DHT22;6282;51.440;6.938;2022-09-02T00:16:15;16.30;1.00
12436;DHT22;6282;51.440;6.938;2022-09-02T00:18:42;16.20;1.00
12436;DHT22;6282;51.440;6.938;2022-09-02T00:21:11;16.40;1.00
12436;DHT22;6282;51.440;6.938;2022-09-02T00:23:39;16.50;1.00
12436;DHT22;6282;51.440;6.938;2022-09-02T00:26:06;16.30;99.90
12436;DHT22;6282;51.440;6.938;2022-09-02T00:28:33;16.20;99.90
12436;DHT22;6282;51.440;6.938;2022-09-02T00:31:00;16.20;1.00
12436;DHT22;6282;51.440;6.938;2022-09-02T00:33:27;16.10;1.00
12436;DHT22;6282;51.440;6.938;2022-09-02T00:35:57;16.00;99.90
12436;DHT22;6282;51.440;6.938;2022-09-02T00:38:26;15.90;36.00
12436;DHT22;6282;51.440;6.938;2022-09-02T00:40:53;15.70;99.90
12436;DHT22;6282;51.440;6.938;2022-09-02T00:43:28;15.70;99.90
12436;DHT22;6282;51.440;6.938;2022-09-02T00:46:04;15.90;1.00
12436;DHT22;6282;51.440;6.938;2022-09-02T00:48:31;15.80;32.90
12436;DHT22;6282;51.440;6.938;2022-09-02T00:50:58;15.70;99.90
12436;DHT22;6282;51.440;6.938;2022-09-02T00:53:28;15.90;1.00
12436;DHT22;6282;51.440;6.938;2022-09-02T00:55:56;16.00;99.90
12436;DHT22;6282;51.440;6.938;2022-09-02T00:58:30;15.80;99.90
12436;DHT22;6282;51.440;6.938;2022-09-02T01:00:59;15.90;17.70
12436;DHT22;6282;51.440;6.938;2022-09-02T01:03:29;15.90;99.90
12436;DHT22;6282;51.440;6.938;2022-09-02T01:05:57;15.70;9.30
12436;DHT22;6282;51.440;6.938;2022-09-02T01:08:26;15.70;99.90
12436;DHT22;6282;51.440;6.938;2022-09-02T01:10:56;15.60;1.00
12436;DHT22;6282;51.440;6.938;2022-09-02T01:13:25;15.70;1.00
12436;DHT22;6282;51.440;6.938;2022-09-02T01:15:55;15.40;98.30
12436;DHT22;6282;51.440;6.938;2022-09-02T01:18:26;15.40;1.00
12436;DHT22;6282;51.440;6.938;2022-09-02T01:20:54;15.30;30.30
12436;DHT22;6282;51.440;6.938;2022-09-02T01:23:24;15.60;99.90
12436;DHT22;6282;51.440;6.938;2022-09-02T01:25:52;15.50;99.90
12436;DHT22;6282;51.440;6.938;2022-09-02T01:28:20;15.40;99.90
12436;DHT22;6282;51.440;6.938;2022-09-02T01:30:50;15.40;1.00
12436;DHT22;6282;51.440;6.938;2022-09-02T01:33:19;15.50;99.90
12436;DHT22;6282;51.440;6.938;2022-09-02T01:35:46;15.40;1.00
12436;DHT22;6282;51.440;6.938;2022-09-02T01:38:13;15.30;99.90
12436;DHT22;6282;51.440;6.938;2022-09-02T01:40:42;15.20;99.90
12436;DHT22;6282;51.440;6.938;2022-09-02T01:43:16;15.10;99.90
12436;DHT22;6282;51.440;6.938;2022-09-02T01:45:45;15.10;99.90
12436;DHT22;6282;51.440;6.938;2022-09-02T01:48:13;15.20;1.00
12436;DHT22;6282;51.440;6.938;2022-09-02T01:50:43;15.20;99.90
12436;DHT22;6282;51.440;6.938;2022-09-02T01:53:11;15.10;99.90
12436;DHT22;6282;51.440;6.938;2022-09-02T01:55:38;15.10;1.00
12436;DHT22;6282;51.440;6.938;2022-09-02T01:58:06;15.20;99.90
12436;DHT22;6282;51.440;6.938;2022-09-02T02:00:33;15.00;99.90
12436;DHT22;6282;51.440;6.938;2022-09-02T02:03:01;14.90;1.00
12436;DHT22;6282;51.440;6.938;2022-09-02T02:05:28;15.00;1.00
12436;DHT22;6282;51.440;6.938;2022-09-02T02:07:55;14.90;1.40
12436;DHT22;6282;51.440;6.938;2022-09-02T02:10:22;14.90;1.00
12436;DHT22;6282;51.440;6.938;2022-09-02T02:12:49;14.70;93.00
12436;DHT22;6282;51.440;6.938;2022-09-02T02:15:19;14.80;99.90
12436;DHT22;6282;51.440;6.938;2022-09-02T02:17:46;14.80;99.90
12436;DHT22;6282;51.440;6.938;2022-09-02T02:20:14;15.10;99.90
12436;DHT22;6282;51.440;6.938;2022-09-02T02:22:42;15.30;1.00
12436;DHT22;6282;51.440;6.938;2022-09-02T02:25:10;15.30;99.90
12436;DHT22;6282;51.440;6.938;2022-09-02T02:27:37;15.20;99.90
12436;DHT22;6282;51.440;6.938;2022-09-02T02:30:05;15.10;1.00
12436;DHT22;6282;51.440;6.938;2022-09-02T02:32:34;15.10;1.00
12436;DHT22;6282;51.440;6.938;2022-09-02T02:35:02;15.10;1.00
12436;DHT22;6282;51.440;6.938;2022-09-02T02:37:30;15.00;1.00
12436;DHT22;6282;51.440;6.938;2022-09-02T02:39:57;14.90;99.90
12436;DHT22;6282;51.440;6.938;2022-09-02T02:42:24;14.80;1.00
12436;DHT22;6282;51.440;6.938;2022-09-02T02:44:50;14.90;1.00
12436;DHT22;6282;51.440;6.938;2022-09-02T02:47:17;14.80;99.90
12436;DHT22;6282;51.440;6.938;2022-09-02T02:49:46;14.80;99.90
12436;DHT22;6282;51.440;6.938;2022-09-02T02:52:12;14.70;99.90
12436;DHT22;6282;51.440;6.938;2022-09-02T02:54:40;14.50;99.90
12436;DHT22;6282;51.440;6.938;2022-09-02T02:57:07;14.50;99.90
12436;DHT22;6282;51.440;6.938;2022-09-02T02:59:34;14.60;1.00
12436;DHT22;6282;51.440;6.938;2022-09-02T03:02:03;14.50;99.90
12436;DHT22;6282;51.440;6.938;2022-09-02T03:04:30;14.40;1.00
12436;DHT22;6282;51.440;6.938;2022-09-02T03:06:58;14.40;1.00
12436;DHT22;6282;51.440;6.938;2022-09-02T03:09:25;14.30;1.00
12436;DHT22;6282;51.440;6.938;2022-09-02T03:11:52;14.40;1.00
12436;DHT22;6282;51.440;6.938;2022-09-02T03:14:19;14.40;1.00
12436;DHT22;6282;51.440;6.938;2022-09-02T03:16:46;14.40;62.20
12436;DHT22;6282;51.440;6.938;2022-09-02T03:19:13;14.30;1.00
12436;DHT22;6282;51.440;6.938;2022-09-02T03:21:40;14.30;99.90
12436;DHT22;6282;51.440;6.938;2022-09-02T03:24:10;14.40;99.90
12436;DHT22;6282;51.440;6.938;2022-09-02T03:26:37;14.40;9.40
12436;DHT22;6282;51.440;6.938;2022-09-02T03:29:04;14.40;1.00
12436;DHT22;6282;51.440;6.938;2022-09-02T03:31:31;14.40;10.70
12436;DHT22;6282;51.440;6.938;2022-09-02T03:34:04;14.40;99.90
12436;DHT22;6282;51.440;6.938;2022-09-02T03:36:45;14.50;99.90
12436;DHT22;6282;51.440;6.938;2022-09-02T03:39:13;14.50;99.90
12436;DHT22;6282;51.440;6.938;2022-09-02T03:41:40;14.40;88.40
12436;DHT22;6282;51.440;6.938;2022-09-02T03:44:08;14.50;1.00
12436;DHT22;6282;51.440;6.938;2022-09-02T03:46:35;14.40;1.00
12436;DHT22;6282;51.440;6.938;2022-09-02T03:49:02;14.20;1.00
12436;DHT22;6282;51.440;6.938;2022-09-02T03:51:29;14.30;8.00
12436;DHT22;6282;51.440;6.938;2022-09-02T03:53:56;14.30;1.00
12436;DHT22;6282;51.440;6.938;2022-09-02T03:56:24;14.20;99.90
12436;DHT22;6282;51.440;6.938;2022-09-02T03:58:51;14.30;99.90
12436;DHT22;6282;51.440;6.938;2022-09-02T04:01:22;14.40;99.90
12436;DHT22;6282;51.440;6.938;2022-09-02T04:03:51;14.50;1.00
12436;DHT22;6282;51.440;6.938;2022-09-02T04:06:19;14.40;99.90
12436;DHT22;6282;51.440;6.938;2022-09-02T04:08:49;14.40;24.10
12436;DHT22;6282;51.440;6.938;2022-09-02T04:11:19;14.40;90.70
12436;DHT22;6282;51.440;6.938;2022-09-02T04:13:49;14.40;99.90
12436;DHT22;6282;51.440;6.938;2022-09-02T04:16:18;14.70;99.90
12436;DHT22;6282;51.440;6.938;2022-09-02T04:18:45;14.60;99.90
12436;DHT22;6282;51.440;6.938;2022-09-02T04:21:13;14.50;99.90
12436;DHT22;6282;51.440;6.938;2022-09-02T04:23:40;14.60;1.00
12436;DHT22;6282;51.440;6.938;2022-09-02T04:26:09;14.50;99.90
12436;DHT22;6282;51.440;6.938;2022-09-02T04:28:36;14.40;99.90
12436;DHT22;6282;51.440;6.938;2022-09-02T04:31:06;14.20;99.90
12436;DHT22;6282;51.440;6.938;2022-09-02T04:33:33;14.20;1.00
12436;DHT22;6282;51.440;6.938;2022-09-02T04:36:04;14.30;1.00
12436;DHT22;6282;51.440;6.938;2022-09-02T04:38:31;14.40;1.00
12436;DHT22;6282;51.440;6.938;2022-09-02T04:40:58;14.30;1.00
12436;DHT22;6282;51.440;6.938;2022-09-02T04:43:25;14.30;11.40
12436;DHT22;6282;51.440;6.938;2022-09-02T04:45:52;14.40;1.00
12436;DHT22;6282;51.440;6.938;2022-09-02T04:48:20;14.30;1.00
12436;DHT22;6282;51.440;6.938;2022-09-02T04:50:48;14.50;1.00
12436;DHT22;6282;51.440;6.938;2022-09-02T04:53:15;14.30;99.90
12436;DHT22;6282;51.440;6.938;2022-09-02T04:55:42;14.40;99.90
12436;DHT22;6282;51.440;6.938;2022-09-02T04:58:09;14.30;99.90
12436;DHT22;6282;51.440;6.938;2022-09-02T05:00:37;14.30;71.40
12436;DHT22;6282;51.440;6.938;2022-09-02T05:03:04;14.20;1.00
12436;DHT22;6282;51.440;6.938;2022-09-02T05:05:33;14.20;1.00
12436;DHT22;6282;51.440;6.938;2022-09-02T05:08:01;14.20;99.90
12436;DHT22;6282;51.440;6.938;2022-09-02T05:10:29;14.30;99.90
12436;DHT22;6282;51.440;6.938;2022-09-02T05:12:57;14.20;1.00
12436;DHT22;6282;51.440;6.938;2022-09-02T05:15:25;14.20;1.00
12436;DHT22;6282;51.440;6.938;2022-09-02T05:17:53;14.30;1.00
12436;DHT22;6282;51.440;6.938;2022-09-02T05:20:20;14.30;90.50
12436;DHT22;6282;51.440;6.938;2022-09-02T05:22:48;14.40;1.00
12436;DHT22;6282;51.440;6.938;2022-09-02T05:25:15;14.60;99.90
12436;DHT22;6282;51.440;6.938;2022-09-02T05:27:43;14.40;1.00
12436;DHT22;6282;51.440;6.938;2022-09-02T05:30:10;14.50;99.90
12436;DHT22;6282;51.440;6.938;2022-09-02T05:32:37;14.80;1.00
12436;DHT22;6282;51.440;6.938;2022-09-02T05:35:06;14.70;99.90
12436;DHT22;6282;51.440;6.938;2022-09-02T05:37:34;14.80;1.00
12436;DHT22;6282;51.440;6.938;2022-09-02T05:40:03;14.70;1.00
12436;DHT22;6282;51.440;6.938;2022-09-02T05:42:30;14.70;1.00
12436;DHT22;6282;51.440;6.938;2022-09-02T05:44:58;14.80;1.00
12436;DHT22;6282;51.440;6.938;2022-09-02T05:47:24;14.60;99.90
12436;DHT22;6282;51.440;6.938;2022-09-02T05:49:51;14.70;1.00
12436;DHT22;6282;51.440;6.938;2022-09-02T05:52:18;14.70;99.90
12436;DHT22;6282;51.440;6.938;2022-09-02T05:54:45;14.80;99.90
12436;DHT22;6282;51.440;6.938;2022-09-02T05:57:16;14.70;99.90
12436;DHT22;6282;51.440;6.938;2022-09-02T05:59:43;14.80;1.00
12436;DHT22;6282;51.440;6.938;2022-09-02T06:02:14;14.50;1.00
12436;DHT22;6282;51.440;6.938;2022-09-02T06:04:43;14.60;99.90
12436;DHT22;6282;51.440;6.938;2022-09-02T06:09:38;14.50;99.90
12436;DHT22;6282;51.440;6.938;2022-09-02T06:12:06;14.50;1.00
12436;DHT22;6282;51.440;6.938;2022-09-02T06:14:34;14.50;99.90
12436;DHT22;6282;51.440;6.938;2022-09-02T06:17:03;14.70;1.00
12436;DHT22;6282;51.440;6.938;2022-09-02T06:19:30;14.80;99.90
12436;DHT22;6282;51.440;6.938;2022-09-02T06:21:59;14.90;1.00
12436;DHT22;6282;51.440;6.938;2022-09-02T06:24:27;15.10;99.90
12436;DHT22;6282;51.440;6.938;2022-09-02T06:26:54;15.30;99.90
12436;DHT22;6282;51.440;6.938;2022-09-02T06:29:23;15.30;22.70
12436;DHT22;6282;51.440;6.938;2022-09-02T06:31:52;15.60;99.90
12436;DHT22;6282;51.440;6.938;2022-09-02T06:34:21;15.70;23.80
12436;DHT22;6282;51.440;6.938;2022-09-02T06:36:50;15.90;1.00
12436;DHT22;6282;51.440;6.938;2022-09-02T06:39:18;16.00;1.00
12436;DHT22;6282;51.440;6.938;2022-09-02T06:41:46;16.20;1.00
12436;DHT22;6282;51.440;6.938;2022-09-02T06:44:14;16.70;1.00
12436;DHT22;6282;51.440;6.938;2022-09-02T06:46:43;16.90;99.90
12436;DHT22;6282;51.440;6.938;2022-09-02T06:49:13;17.30;1.00
12436;DHT22;6282;51.440;6.938;2022-09-02T06:51:43;17.30;1.00
12436;DHT22;6282;51.440;6.938;2022-09-02T06:54:13;17.30;1.00
12436;DHT22;6282;51.440;6.938;2022-09-02T06:56:41;17.40;1.00
12436;DHT22;6282;51.440;6.938;2022-09-02T06:59:08;17.30;99.90
12436;DHT22;6282;51.440;6.938;2022-09-02T07:01:36;17.40;1.00
12436;DHT22;6282;51.440;6.938;2022-09-02T07:04:03;17.30;1.00
12436;DHT22;6282;51.440;6.938;2022-09-02T07:06:51;17.20;1.00
12436;DHT22;6282;51.440;6.938;2022-09-02T07:09:20;17.20;1.00
12436;DHT22;6282;51.440;6.938;2022-09-02T07:11:48;17.20;1.00
12436;DHT22;6282;51.440;6.938;2022-09-02T07:14:16;17.30;1.00
12436;DHT22;6282;51.440;6.938;2022-09-02T07:16:46;20.20;99.90
12436;DHT22;6282;51.440;6.938;2022-09-02T07:19:14;19.30;99.90
12436;DHT22;6282;51.440;6.938;2022-09-02T07:21:41;18.50;99.90
12436;DHT22;6282;51.440;6.938;2022-09-02T07:24:11;18.10;99.90
12436;DHT22;6282;51.440;6.938;2022-09-02T07:26:38;17.90;1.00
12436;DHT22;6282;51.440;6.938;2022-09-02T07:29:07;17.80;99.90
12436;DHT22;6282;51.440;6.938;2022-09-02T07:31:34;18.00;99.90
12436;DHT22;6282;51.440;6.938;2022-09-02T07:34:01;17.90;99.90
12436;DHT22;6282;51.440;6.938;2022-09-02T07:36:29;17.80;99.90
12436;DHT22;6282;51.440;6.938;2022-09-02T07:38:56;17.70;99.90
12436;DHT22;6282;51.440;6.938;2022-09-02T07:41:24;17.80;99.90
12436;DHT22;6282;51.440;6.938;2022-09-02T07:43:51;18.30;99.90
12436;DHT22;6282;51.440;6.938;2022-09-02T07:46:19;18.40;96.50
12436;DHT22;6282;51.440;6.938;2022-09-02T07:48:46;20.30;79.60
12436;DHT22;6282;51.440;6.938;2022-09-02T07:51:15;22.50;1.00
12436;DHT22;6282;51.440;6.938;2022-09-02T07:53:42;22.80;1.00
12436;DHT22;6282;51.440;6.938;2022-09-02T07:56:10;21.40;1.00
12436;DHT22;6282;51.440;6.938;2022-09-02T07:58:41;20.60;1.00
12436;DHT22;6282;51.440;6.938;2022-09-02T08:01:08;20.10;1.00
12436;DHT22;6282;51.440;6.938;2022-09-02T08:03:38;19.80;1.00
12436;DHT22;6282;51.440;6.938;2022-09-02T08:06:06;20.60;1.00
12436;DHT22;6282;51.440;6.938;2022-09-02T08:08:33;20.30;1.00
12436;DHT22;6282;51.440;6.938;2022-09-02T08:11:00;19.90;1.00
12436;DHT22;6282;51.440;6.938;2022-09-02T08:13:27;21.90;1.00
12436;DHT22;6282;51.440;6.938;2022-09-02T08:15:55;22.50;1.00
12436;DHT22;6282;51.440;6.938;2022-09-02T08:18:22;23.50;1.00
12436;DHT22;6282;51.440;6.938;2022-09-02T08:20:49;24.50;1.00
12436;DHT22;6282;51.440;6.938;2022-09-02T08:23:16;23.30;1.00
12436;DHT22;6282;51.440;6.938;2022-09-02T08:25:44;22.80;1.00
12436;DHT22;6282;51.440;6.938;2022-09-02T08:28:11;22.10;1.00
12436;DHT22;6282;51.440;6.938;2022-09-02T08:30:38;23.20;1.00
12436;DHT22;6282;51.440;6.938;2022-09-02T08:33:08;24.20;1.00
12436;DHT22;6282;51.440;6.938;2022-09-02T08:35:34;24.50;1.00
12436;DHT22;6282;51.440;6.938;2022-09-02T08:38:01;25.70;1.00
12436;DHT22;6282;51.440;6.938;2022-09-02T08:40:33;25.90;1.00
12436;DHT22;6282;51.440;6.938;2022-09-02T08:43:04;26.20;1.00
12436;DHT22;6282;51.440;6.938;2022-09-02T08:45:35;26.70;1.00
12436;DHT22;6282;51.440;6.938;2022-09-02T08:48:05;26.00;1.00
12436;DHT22;6282;51.440;6.938;2022-09-02T08:50:36;26.40;1.00
12436;DHT22;6282;51.440;6.938;2022-09-02T08:53:08;26.30;1.00
12436;DHT22;6282;51.440;6.938;2022-09-02T08:55:42;26.20;1.00
12436;DHT22;6282;51.440;6.938;2022-09-02T08:58:10;26.60;1.00
12436;DHT22;6282;51.440;6.938;2022-09-02T09:00:41;26.90;1.00
12436;DHT22;6282;51.440;6.938;2022-09-02T09:03:17;27.30;1.00
12436;DHT22;6282;51.440;6.938;2022-09-02T09:05:57;27.50;1.00
12436;DHT22;6282;51.440;6.938;2022-09-02T09:08:30;27.80;1.00
12436;DHT22;6282;51.440;6.938;2022-09-02T09:11:01;26.30;99.90
12436;DHT22;6282;51.440;6.938;2022-09-02T09:13:46;26.20;1.00
12436;DHT22;6282;51.440;6.938;2022-09-02T09:16:23;25.80;99.90
12436;DHT22;6282;51.440;6.938;2022-09-02T09:18:59;25.60;99.90
12436;DHT22;6282;51.440;6.938;2022-09-02T09:21:30;25.00;1.00
12436;DHT22;6282;51.440;6.938;2022-09-02T09:23:59;24.60;1.00
12436;DHT22;6282;51.440;6.938;2022-09-02T09:26:32;24.80;1.00
12436;DHT22;6282;51.440;6.938;2022-09-02T09:29:03;25.10;1.00
12436;DHT22;6282;51.440;6.938;2022-09-02T09:31:31;25.40;1.00
12436;DHT22;6282;51.440;6.938;2022-09-02T09:34:01;25.10;1.00
12436;DHT22;6282;51.440;6.938;2022-09-02T09:36:48;25.00;1.00
12436;DHT22;6282;51.440;6.938;2022-09-02T09:39:24;25.30;1.00
12436;DHT22;6282;51.440;6.938;2022-09-02T09:41:52;25.20;99.90
12436;DHT22;6282;51.440;6.938;2022-09-02T09:44:40;25.30;99.90
12436;DHT22;6282;51.440;6.938;2022-09-02T09:47:12;25.40;99.90
12436;DHT22;6282;51.440;6.938;2022-09-02T09:49:40;25.30;99.90
12436;DHT22;6282;51.440;6.938;2022-09-02T09:52:08;24.50;99.90
12436;DHT22;6282;51.440;6.938;2022-09-02T09:54:35;23.80;99.90
12436;DHT22;6282;51.440;6.938;2022-09-02T09:57:16;23.60;1.00
12436;DHT22;6282;51.440;6.938;2022-09-02T09:59:47;23.60;1.00
12436;DHT22;6282;51.440;6.938;2022-09-02T10:02:20;23.90;1.00
12436;DHT22;6282;51.440;6.938;2022-09-02T10:04:48;23.90;99.90
12436;DHT22;6282;51.440;6.938;2022-09-02T10:07:33;24.80;99.90
12436;DHT22;6282;51.440;6.938;2022-09-02T10:10:14;24.50;99.90
12436;DHT22;6282;51.440;6.938;2022-09-02T10:12:43;24.40;99.90
12436;DHT22;6282;51.440;6.938;2022-09-02T10:15:09;24.40;99.90
12436;DHT22;6282;51.440;6.938;2022-09-02T10:17:44;23.80;99.90
12436;DHT22;6282;51.440;6.938;2022-09-02T10:20:17;23.70;99.90
12436;DHT22;6282;51.440;6.938;2022-09-02T10:25:55;23.50;99.90
12436;DHT22;6282;51.440;6.938;2022-09-02T10:28:50;23.40;99.90
12436;DHT22;6282;51.440;6.938;2022-09-02T10:31:25;23.30;1.00
12436;DHT22;6282;51.440;6.938;2022-09-02T10:34:06;23.30;1.00
12436;DHT22;6282;51.440;6.938;2022-09-02T10:36:40;23.30;1.00
12436;DHT22;6282;51.440;6.938;2022-09-02T10:39:19;23.70;1.00
12436;DHT22;6282;51.440;6.938;2022-09-02T10:41:50;24.10;99.90
12436;DHT22;6282;51.440;6.938;2022-09-02T10:44:26;24.40;99.90
12436;DHT22;6282;51.440;6.938;2022-09-02T10:46:59;24.30;99.90
12436;DHT22;6282;51.440;6.938;2022-09-02T10:49:59;24.90;99.90
12436;DHT22;6282;51.440;6.938;2022-09-02T10:52:35;25.30;99.90
12436;DHT22;6282;51.440;6.938;2022-09-02T10:55:15;25.10;99.90
12436;DHT22;6282;51.440;6.938;2022-09-02T10:57:46;24.80;99.90
12436;DHT22;6282;51.440;6.938;2022-09-02T11:00:16;24.40;99.90
12436;DHT22;6282;51.440;6.938;2022-09-02T11:02:48;24.50;99.90
12436;DHT22;6282;51.440;6.938;2022-09-02T11:05:20;24.60;99.90
12436;DHT22;6282;51.440;6.938;2022-09-02T11:07:52;24.50;99.90
12436;DHT22;6282;51.440;6.938;2022-09-02T11:10:25;24.50;99.90
12436;DHT22;6282;51.440;6.938;2022-09-02T11:13:00;24.80;99.90
12436;DHT22;6282;51.440;6.938;2022-09-02T11:15:42;24.80;99.90
12436;DHT22;6282;51.440;6.938;2022-09-02T11:18:15;25.10;99.90
12436;DHT22;6282;51.440;6.938;2022-09-02T11:20:46;24.90;99.90
12436;DHT22;6282;51.440;6.938;2022-09-02T11:23:20;24.50;99.90
12436;DHT22;6282;51.440;6.938;2022-09-02T11:25:54;24.40;99.90
12436;DHT22;6282;51.440;6.938;2022-09-02T11:28:30;24.20;99.90
12436;DHT22;6282;51.440;6.938;2022-09-02T11:31:02;24.20;99.90
12436;DHT22;6282;51.440;6.938;2022-09-02T11:33:42;24.30;99.90
12436;DHT22;6282;51.440;6.938;2022-09-02T11:36:11;24.70;99.90
12436;DHT22;6282;51.440;6.938;2022-09-02T11:38:41;24.80;99.90
12436;DHT22;6282;51.440;6.938;2022-09-02T11:41:25;24.90;99.90
12436;DHT22;6282;51.440;6.938;2022-09-02T11:43:55;24.80;99.90
12436;DHT22;6282;51.440;6.938;2022-09-02T11:46:42;24.60;99.90
12436;DHT22;6282;51.440;6.938;2022-09-02T11:49:41;24.40;99.90
12436;DHT22;6282;51.440;6.938;2022-09-02T11:52:25;24.50;99.90
12436;DHT22;6282;51.440;6.938;2022-09-02T11:55:03;24.40;99.90
12436;DHT22;6282;51.440;6.938;2022-09-02T11:57:33;24.50;99.90
12436;DHT22;6282;51.440;6.938;2022-09-02T12:00:05;24.50;99.90
12436;DHT22;6282;51.440;6.938;2022-09-02T12:02:43;24.40;99.90
12436;DHT22;6282;51.440;6.938;2022-09-02T12:05:49;24.70;99.90
12436;DHT22;6282;51.440;6.938;2022-09-02T12:08:58;25.00;99.90
12436;DHT22;6282;51.440;6.938;2022-09-02T12:11:36;25.10;99.90
12436;DHT22;6282;51.440;6.938;2022-09-02T12:14:06;25.00;99.90
12436;DHT22;6282;51.440;6.938;2022-09-02T12:16:42;25.00;99.90
12436;DHT22;6282;51.440;6.938;2022-09-02T12:19:39;25.10;99.90
12436;DHT22;6282;51.440;6.938;2022-09-02T12:22:31;25.50;99.90
12436;DHT22;6282;51.440;6.938;2022-09-02T12:24:58;25.70;99.90
12436;DHT22;6282;51.440;6.938;2022-09-02T12:27:32;26.00;99.90
12436;DHT22;6282;51.440;6.938;2022-09-02T12:30:05;25.90;99.90
12436;DHT22;6282;51.440;6.938;2022-09-02T12:33:01;25.90;99.90
12436;DHT22;6282;51.440;6.938;2022-09-02T12:35:32;26.30;99.90
12436;DHT22;6282;51.440;6.938;2022-09-02T12:38:33;26.10;99.90
12436;DHT22;6282;51.440;6.938;2022-09-02T12:41:19;25.80;99.90
12436;DHT22;6282;51.440;6.938;2022-09-02T12:44:14;25.90;99.90
12436;DHT22;6282;51.440;6.938;2022-09-02T12:47:02;25.90;99.90
12436;DHT22;6282;51.440;6.938;2022-09-02T12:49:41;26.60;99.90
12436;DHT22;6282;51.440;6.938;2022-09-02T12:52:11;26.80;99.90
12436;DHT22;6282;51.440;6.938;2022-09-02T12:54:44;26.00;99.90
12436;DHT22;6282;51.440;6.938;2022-09-02T12:57:14;26.30;99.90
12436;DHT22;6282;51.440;6.938;2022-09-02T12:59:43;25.70;99.90
12436;DHT22;6282;51.440;6.938;2022-09-02T13:02:30;25.70;99.90
12436;DHT22;6282;51.440;6.938;2022-09-02T13:05:12;25.90;99.90
12436;DHT22;6282;51.440;6.938;2022-09-02T13:08:00;25.70;99.90
12436;DHT22;6282;51.440;6.938;2022-09-02T13:10:52;25.50;99.90
12436;DHT22;6282;51.440;6.938;2022-09-02T13:13:50;25.70;99.90
12436;DHT22;6282;51.440;6.938;2022-09-02T13:16:36;26.50;99.90
12436;DHT22;6282;51.440;6.938;2022-09-02T13:19:41;26.50;99.90
12436;DHT22;6282;51.440;6.938;2022-09-02T13:28:21;26.30;99.90
12436;DHT22;6282;51.440;6.938;2022-09-02T13:31:14;26.60;99.90
12436;DHT22;6282;51.440;6.938;2022-09-02T13:33:44;26.60;99.90
12436;DHT22;6282;51.440;6.938;2022-09-02T13:36:23;25.70;99.90
12436;DHT22;6282;51.440;6.938;2022-09-02T13:38:52;26.00;99.90
12436;DHT22;6282;51.440;6.938;2022-09-02T13:41:29;26.20;99.90
12436;DHT22;6282;51.440;6.938;2022-09-02T13:44:07;26.40;99.90
12436;DHT22;6282;51.440;6.938;2022-09-02T13:46:46;26.30;99.90
12436;DHT22;6282;51.440;6.938;2022-09-02T13:49:22;26.10;99.90
12436;DHT22;6282;51.440;6.938;2022-09-02T13:51:53;25.90;99.90
12436;DHT22;6282;51.440;6.938;2022-09-02T13:54:29;26.10;99.90
12436;DHT22;6282;51.440;6.938;2022-09-02T13:56:58;26.30;99.90
12436;DHT22;6282;51.440;6.938;2022-09-02T13:59:34;26.00;99.90
12436;DHT22;6282;51.440;6.938;2022-09-02T14:02:23;26.40;99.90
12436;DHT22;6282;51.440;6.938;2022-09-02T14:04:53;26.10;99.90
12436;DHT22;6282;51.440;6.938;2022-09-02T14:07:27;25.90;99.90
12436;DHT22;6282;51.440;6.938;2022-09-02T14:09:56;26.20;99.90
12436;DHT22;6282;51.440;6.938;2022-09-02T14:12:24;25.80;99.90
12436;DHT22;6282;51.440;6.938;2022-09-02T14:14:53;25.90;99.90
12436;DHT22;6282;51.440;6.938;2022-09-02T14:17:22;25.70;99.90
12436;DHT22;6282;51.440;6.938;2022-09-02T14:19:49;25.70;99.90
12436;DHT22;6282;51.440;6.938;2022-09-02T14:22:27;25.80;99.90
12436;DHT22;6282;51.440;6.938;2022-09-02T14:24:54;26.00;99.90
12436;DHT22;6282;51.440;6.938;2022-09-02T14:27:22;25.60;99.90
12436;DHT22;6282;51.440;6.938;2022-09-02T14:29:54;25.60;99.90
12436;DHT22;6282;51.440;6.938;2022-09-02T14:32:23;25.10;99.90
12436;DHT22;6282;51.440;6.938;2022-09-02T14:35:09;25.00;99.90
12436;DHT22;6282;51.440;6.938;2022-09-02T14:37:50;25.00;99.90
12436;DHT22;6282;51.440;6.938;2022-09-02T14:40:30;24.60;99.90
12436;DHT22;6282;51.440;6.938;2022-09-02T14:42:58;24.70;99.90
12436;DHT22;6282;51.440;6.938;2022-09-02T14:45:27;25.10;99.90
12436;DHT22;6282;51.440;6.938;2022-09-02T14:47:58;25.30;99.90
12436;DHT22;6282;51.440;6.938;2022-09-02T14:50:29;25.50;99.90
12436;DHT22;6282;51.440;6.938;2022-09-02T14:53:03;25.70;99.90
12436;DHT22;6282;51.440;6.938;2022-09-02T14:55:55;25.10;99.90
12436;DHT22;6282;51.440;6.938;2022-09-02T14:58:24;24.80;99.90
12436;DHT22;6282;51.440;6.938;2022-09-02T15:00:53;24.30;99.90
12436;DHT22;6282;51.440;6.938;2022-09-02T15:03:21;24.50;99.90
12436;DHT22;6282;51.440;6.938;2022-09-02T15:05:48;24.50;99.90
12436;DHT22;6282;51.440;6.938;2022-09-02T15:08:18;25.00;99.90
12436;DHT22;6282;51.440;6.938;2022-09-02T15:10:46;25.40;99.90
12436;DHT22;6282;51.440;6.938;2022-09-02T15:13:20;25.50;99.90
12436;DHT22;6282;51.440;6.938;2022-09-02T15:15:50;25.40;99.90
12436;DHT22;6282;51.440;6.938;2022-09-02T15:18:19;24.90;99.90
12436;DHT22;6282;51.440;6.938;2022-09-02T15:20:46;24.90;99.90
12436;DHT22;6282;51.440;6.938;2022-09-02T15:23:14;24.80;99.90
12436;DHT22;6282;51.440;6.938;2022-09-02T15:25:42;24.50;99.90
12436;DHT22;6282;51.440;6.938;2022-09-02T15:28:09;24.90;99.90
12436;DHT22;6282;51.440;6.938;2022-09-02T15:30:38;24.80;99.90
12436;DHT22;6282;51.440;6.938;2022-09-02T15:33:06;24.90;99.90
12436;DHT22;6282;51.440;6.938;2022-09-02T15:35:34;25.20;99.90
12436;DHT22;6282;51.440;6.938;2022-09-02T15:38:01;25.30;99.90
12436;DHT22;6282;51.440;6.938;2022-09-02T15:40:29;25.20;99.90
12436;DHT22;6282;51.440;6.938;2022-09-02T15:42:58;25.20;99.90
12436;DHT22;6282;51.440;6.938;2022-09-02T15:45:26;25.40;99.90
12436;DHT22;6282;51.440;6.938;2022-09-02T15:47:55;25.50;99.90
12436;DHT22;6282;51.440;6.938;2022-09-02T15:50:22;25.40;99.90
12436;DHT22;6282;51.440;6.938;2022-09-02T15:52:50;25.40;99.90
12436;DHT22;6282;51.440;6.938;2022-09-02T15:55:17;25.50;99.90
12436;DHT22;6282;51.440;6.938;2022-09-02T15:57:44;25.20;99.90
12436;DHT22;6282;51.440;6.938;2022-09-02T16:00:13;25.20;99.90
12436;DHT22;6282;51.440;6.938;2022-09-02T16:02:40;25.20;99.90
12436;DHT22;6282;51.440;6.938;2022-09-02T16:05:08;25.40;99.90
12436;DHT22;6282;51.440;6.938;2022-09-02T16:07:38;25.30;99.90
12436;DHT22;6282;51.440;6.938;2022-09-02T16:10:06;25.40;99.90
12436;DHT22;6282;51.440;6.938;2022-09-02T16:12:33;25.10;99.90
12436;DHT22;6282;51.440;6.938;2022-09-02T16:15:00;25.00;99.90
12436;DHT22;6282;51.440;6.938;2022-09-02T16:17:29;24.90;99.90
12436;DHT22;6282;51.440;6.938;2022-09-02T16:19:56;25.10;99.90
12436;DHT22;6282;51.440;6.938;2022-09-02T16:22:23;25.10;99.90
12436;DHT22;6282;51.440;6.938;2022-09-02T16:24:50;24.70;99.90
12436;DHT22;6282;51.440;6.938;2022-09-02T16:27:17;24.90;99.90
12436;DHT22;6282;51.440;6.938;2022-09-02T16:30:05;24.80;99.90